Forbes Field
KFOE : now visible

Airfield :











YOU CAN JOIN US ON...

 
LOGIN :

Register | Disclaimer

   EN    FR    IT 

 









Legend :    VFR   Marginal VFR   IFR   Intensive IFR   Very Intensive IFR
Visi :
Ceiling :
>= 8 km
>= 3000ft
5 to 8 km
1000 to 3000 ft
1500m to 5 km
500 to 1000 ft
800 to 1500m
200 to 500 ft
< 800m
< 200 ft
Symbols :   Thunderstorms  Fog  Heavy snow  Heavy precipitations  Wind > 20 kt






- Airport Elevation : 1078 ft
- IATA code : FOE


KFOE - Forbes Field

CURRENT METAR :
  • 141053Z 06004KT 10SM CLR 21/19 A3000 RMK AO2 SLP145 T02110189 $

EXPIRED METARs :
  • 140953Z AUTO 05003KT 10SM FEW012 22/17 A2996 RMK AO2 SLP132 T02170172 $
  • 140853Z AUTO 01005KT 10SM CLR 23/17 A2995 RMK AO2 SLP129 T02280167 51008 $
  • 140753Z AUTO 04005KT 10SM CLR 24/16 A2995 RMK AO2 SLP128 T02390156 $
  • 140653Z AUTO 02007KT 10SM CLR 26/16 A2995 RMK AO2 SLP129 T02560156 $

TAF KFOE
Valid from the 14 at 06:00 until the 15 at 06:00 UTC


140520Z 1406/1506 36009KT P6SM FEW100
FM141600 08011KT P6SM FEW050 SCT150
KZKC FIR / North America



MET'MAP, your aeronautical weather chart ! - Copyright ORBIFLY December 2007 - Disclaimer

ORBIFLY MET'MAP TEAM :

Programming & Development : Alexandra Zaïnal
Original concept : Baudouin d'Aumeries
Technical & hardware support : Manuel Goepfert
Assistance : Marc-Olivier Méhu




SOURCES & CREDITS :

   NOAA       Earth
Advisory